createdAt,value
2019-03-08T00:00:56.788Z,993.35
2019-03-08T00:02:06.520Z,993.41
2019-03-08T00:03:16.538Z,993.32
2019-03-08T00:04:26.517Z,993.42
2019-03-08T00:05:36.236Z,993.41
2019-03-08T00:06:45.958Z,993.31
2019-03-08T00:07:55.683Z,993.49
2019-03-08T00:09:05.708Z,993.42
2019-03-08T00:10:16.755Z,993.43
2019-03-08T00:11:26.233Z,993.48
2019-03-08T00:12:35.967Z,993.44
2019-03-08T00:13:45.691Z,993.5
2019-03-08T00:14:55.442Z,993.51
2019-03-08T00:16:05.330Z,993.47
2019-03-08T00:17:14.566Z,993.4
2019-03-08T00:18:24.551Z,993.39
2019-03-08T00:19:34.289Z,993.4
2019-03-08T00:20:44.022Z,993.24
2019-03-08T00:21:53.997Z,993.35
2019-03-08T00:23:03.980Z,993.36
2019-03-08T00:24:13.217Z,993.41
2019-03-08T00:25:22.947Z,993.47
2019-03-08T00:26:32.694Z,993.39
2019-03-08T00:27:42.436Z,993.34
2019-03-08T00:28:51.909Z,993.42
2019-03-08T00:30:02.603Z,993.29
2019-03-08T00:31:12.327Z,993.36
2019-03-08T00:32:22.338Z,993.4
2019-03-08T00:33:32.293Z,993.39
2019-03-08T00:34:42.755Z,993.41
2019-03-08T00:35:53.155Z,993.38
2019-03-08T00:37:03.265Z,993.39
2019-03-08T00:38:14.303Z,993.27
2019-03-08T00:39:24.615Z,993.32
2019-03-08T00:40:34.835Z,993.29
2019-03-08T00:41:44.548Z,993.34
2019-03-08T00:42:53.942Z,993.31
2019-03-08T00:44:04.055Z,993.26
2019-03-08T00:45:13.791Z,993.24
2019-03-08T00:46:23.513Z,993.3
2019-03-08T00:47:33.040Z,993.4
2019-03-08T00:48:44.117Z,993.3
2019-03-08T00:49:54.151Z,993.33
2019-03-08T00:51:04.133Z,993.37
2019-03-08T00:52:13.872Z,993.24
2019-03-08T00:53:23.852Z,993.43
2019-03-08T00:54:33.588Z,993.3
2019-03-08T00:55:43.318Z,993.35
2019-03-08T00:56:52.806Z,993.31
2019-03-08T00:58:02.031Z,993.37
2019-03-08T00:59:12.025Z,993.36
2019-03-08T01:00:21.757Z,993.38
2019-03-08T01:01:31.476Z,993.23
2019-03-08T01:02:41.199Z,993.33
2019-03-08T01:03:51.182Z,993.25
2019-03-08T01:05:00.907Z,993.33
2019-03-08T01:06:10.903Z,993.29
2019-03-08T01:07:20.142Z,993.26
2019-03-08T01:08:29.876Z,993.21
2019-03-08T01:09:39.844Z,993.26
2019-03-08T01:10:49.563Z,993.36
2019-03-08T01:11:59.289Z,993.18
2019-03-08T01:13:09.034Z,993.33
2019-03-08T01:14:19.017Z,993.22
2019-03-08T01:15:28.781Z,993.19
2019-03-08T01:16:38.503Z,993.29
2019-03-08T01:17:48.495Z,993.32
2019-03-08T01:18:58.251Z,993.28
2019-03-08T01:20:08.236Z,993.31
2019-03-08T01:21:17.763Z,993.37
2019-03-08T01:22:27.736Z,993.34
2019-03-08T01:23:37.226Z,993.29
2019-03-08T01:24:47.227Z,993.22
2019-03-08T01:25:56.461Z,993.31
2019-03-08T01:27:05.951Z,993.23
2019-03-08T01:28:15.987Z,993.26
2019-03-08T01:29:25.728Z,993.28
2019-03-08T01:30:34.985Z,993.33
2019-03-08T01:31:44.481Z,993.43
2019-03-08T01:32:56.640Z,993.18
2019-03-08T01:34:06.819Z,993.35
2019-03-08T01:35:17.082Z,993.38
2019-03-08T01:36:27.860Z,993.47
2019-03-08T01:37:38.119Z,993.48
2019-03-08T01:38:48.754Z,993.45
2019-03-08T01:39:58.647Z,993.41
2019-03-08T01:41:08.534Z,993.39
2019-03-08T01:42:18.439Z,993.45
2019-03-08T01:43:28.409Z,993.35
2019-03-08T01:44:37.639Z,993.4
2019-03-08T01:45:47.406Z,993.38
2019-03-08T01:46:57.391Z,993.45
2019-03-08T01:48:07.117Z,993.46
2019-03-08T01:49:16.853Z,993.42
2019-03-08T01:50:26.360Z,993.35
2019-03-08T01:51:35.332Z,993.25
2019-03-08T01:52:45.305Z,993.29
2019-03-08T01:53:55.294Z,993.42
2019-03-08T01:55:05.029Z,993.38
2019-03-08T01:56:14.516Z,993.25
2019-03-08T01:57:24.522Z,993.28
2019-03-08T01:58:34.255Z,993.13
2019-03-08T01:59:43.740Z,993.28
2019-03-08T02:00:53.476Z,993.32
2019-03-08T02:02:02.952Z,993.4
2019-03-08T02:03:13.399Z,993.26
2019-03-08T02:04:24.897Z,993.27
2019-03-08T02:05:34.649Z,993.39
2019-03-08T02:06:44.382Z,993.34
2019-03-08T02:07:54.362Z,993.39
2019-03-08T02:09:04.327Z,993.39
2019-03-08T02:10:14.049Z,993.4
2019-03-08T02:11:24.034Z,993.44
2019-03-08T02:12:33.755Z,993.45
2019-03-08T02:13:45.043Z,993.4
2019-03-08T02:14:54.781Z,993.35
2019-03-08T02:16:04.515Z,993.45
2019-03-08T02:17:14.263Z,993.45
2019-03-08T02:18:24.285Z,993.53
2019-03-08T02:19:34.006Z,993.53
2019-03-08T02:20:43.740Z,993.61
2019-03-08T02:21:55.198Z,993.47
2019-03-08T02:23:04.940Z,993.64
2019-03-08T02:24:14.678Z,993.62
2019-03-08T02:25:24.403Z,993.73
2019-03-08T02:26:33.897Z,993.61
2019-03-08T02:27:43.656Z,993.71
2019-03-08T02:28:52.885Z,993.71
2019-03-08T02:30:02.962Z,993.75
2019-03-08T02:31:13.076Z,993.8
2019-03-08T02:32:23.444Z,993.7
2019-03-08T02:33:33.209Z,993.79
2019-03-08T02:34:42.846Z,993.8
2019-03-08T02:35:53.372Z,993.9
2019-03-08T02:37:03.473Z,993.82
2019-03-08T02:38:14.034Z,993.78
2019-03-08T02:39:24.179Z,993.92
2019-03-08T02:40:34.065Z,993.93
2019-03-08T02:41:43.910Z,993.87
2019-03-08T02:42:53.643Z,993.9
2019-03-08T02:44:03.397Z,993.91
2019-03-08T02:45:12.863Z,993.8
2019-03-08T02:46:22.579Z,993.93
2019-03-08T02:47:32.555Z,994.06
2019-03-08T02:48:42.546Z,994.03
2019-03-08T02:49:52.023Z,994.12
2019-03-08T02:51:01.770Z,994.04
2019-03-08T02:52:11.248Z,994.1
2019-03-08T02:53:20.975Z,994.14
2019-03-08T02:54:30.694Z,994.1
2019-03-08T02:55:41.886Z,994.07
2019-03-08T02:56:51.865Z,994.17
2019-03-08T02:58:01.365Z,994.13
2019-03-08T02:59:11.100Z,994.24
2019-03-08T03:00:20.625Z,994.23
2019-03-08T03:01:30.608Z,994.33
2019-03-08T03:02:40.620Z,994.19
2019-03-08T03:03:50.598Z,994.28
2019-03-08T03:05:00.402Z,994.29
2019-03-08T03:06:10.170Z,994.31
2019-03-08T03:07:19.899Z,994.26
2019-03-08T03:08:29.363Z,994.24
2019-03-08T03:09:39.348Z,994.22
2019-03-08T03:10:48.821Z,994.23
2019-03-08T03:11:58.308Z,994.3
2019-03-08T03:13:08.284Z,994.45
2019-03-08T03:14:18.266Z,994.61
2019-03-08T03:15:27.991Z,994.52
2019-03-08T03:16:37.731Z,994.6
2019-03-08T03:17:46.951Z,994.69
2019-03-08T03:18:56.926Z,994.7
2019-03-08T03:20:06.669Z,994.72
2019-03-08T03:21:16.427Z,994.72
2019-03-08T03:22:26.140Z,994.79
2019-03-08T03:23:35.355Z,994.77
2019-03-08T03:24:45.329Z,994.82
2019-03-08T03:25:54.822Z,994.84
2019-03-08T03:27:04.787Z,994.9
2019-03-08T03:28:14.523Z,994.93
2019-03-08T03:29:24.518Z,994.97
2019-03-08T03:30:34.563Z,994.88
2019-03-08T03:31:44.516Z,994.96
2019-03-08T03:32:54.823Z,994.96
2019-03-08T03:34:05.169Z,994.94
2019-03-08T03:35:15.572Z,995.02
2019-03-08T03:36:25.617Z,995.01
2019-03-08T03:37:36.035Z,995.02
2019-03-08T03:38:46.119Z,995.05
2019-03-08T03:39:55.548Z,995.03
2019-03-08T03:41:05.562Z,995.04
2019-03-08T03:42:15.554Z,995.1
2019-03-08T03:43:25.270Z,995.11
2019-03-08T03:44:34.981Z,995.16
2019-03-08T03:45:44.737Z,995.22
2019-03-08T03:46:54.715Z,995.03
2019-03-08T03:48:04.488Z,995.19
2019-03-08T03:49:13.969Z,995.18
2019-03-08T03:50:23.436Z,995.18
2019-03-08T03:51:33.167Z,995.28
2019-03-08T03:52:42.655Z,995.19
2019-03-08T03:53:52.665Z,995.29
2019-03-08T03:55:02.671Z,995.26
2019-03-08T03:56:12.666Z,995.33
2019-03-08T03:57:22.399Z,995.36
2019-03-08T03:58:31.867Z,995.28
2019-03-08T03:59:41.603Z,995.38
2019-03-08T04:00:51.079Z,995.54
2019-03-08T04:02:00.842Z,995.52
2019-03-08T04:03:10.829Z,995.54
2019-03-08T04:04:20.558Z,995.56
2019-03-08T04:05:30.303Z,995.62
2019-03-08T04:06:40.278Z,995.61
2019-03-08T04:07:50.009Z,995.63
2019-03-08T04:08:59.771Z,995.72
2019-03-08T04:10:09.235Z,995.67
2019-03-08T04:11:19.002Z,995.74
2019-03-08T04:12:29.018Z,995.78
2019-03-08T04:13:38.750Z,995.77
2019-03-08T04:14:48.481Z,995.92
2019-03-08T04:15:57.957Z,995.99
2019-03-08T04:17:07.930Z,995.96
2019-03-08T04:18:17.655Z,996.03
2019-03-08T04:19:27.138Z,996.04
2019-03-08T04:20:36.395Z,996.17
2019-03-08T04:21:46.159Z,996.21
2019-03-08T04:22:55.893Z,996.4
2019-03-08T04:24:05.372Z,996.12
2019-03-08T04:25:14.865Z,996.21
2019-03-08T04:26:24.851Z,996.22
2019-03-08T04:27:34.100Z,996.4
2019-03-08T04:28:44.702Z,996.2
2019-03-08T04:29:56.589Z,996.34
2019-03-08T04:31:06.400Z,996.38
2019-03-08T04:32:15.908Z,996.32
2019-03-08T04:33:26.202Z,996.42
2019-03-08T04:34:36.375Z,996.46
2019-03-08T04:35:46.499Z,996.5
2019-03-08T04:36:56.412Z,996.48
2019-03-08T04:38:06.745Z,996.56
2019-03-08T04:39:16.931Z,996.59
2019-03-08T04:40:26.745Z,996.6
2019-03-08T04:41:37.120Z,996.57
2019-03-08T04:42:46.847Z,996.7
2019-03-08T04:43:56.315Z,996.64
2019-03-08T04:45:06.359Z,996.79
2019-03-08T04:46:16.108Z,996.79
2019-03-08T04:47:25.824Z,996.92
2019-03-08T04:48:35.550Z,996.9
2019-03-08T04:49:44.783Z,996.87
2019-03-08T04:50:54.278Z,997.03
2019-03-08T04:52:03.992Z,997.08
2019-03-08T04:53:13.738Z,997.09
2019-03-08T04:54:23.704Z,996.98
2019-03-08T04:55:33.441Z,997.07
2019-03-08T04:56:42.915Z,997.12
2019-03-08T04:57:52.674Z,997.17
2019-03-08T04:59:02.174Z,997.24
2019-03-08T05:00:11.662Z,997.25
2019-03-08T05:01:21.146Z,997.25
2019-03-08T05:02:30.878Z,997.34
2019-03-08T05:03:40.873Z,997.41
2019-03-08T05:04:50.596Z,997.39
2019-03-08T05:06:00.839Z,997.41
2019-03-08T05:07:10.661Z,997.4
2019-03-08T05:08:20.156Z,997.49
2019-03-08T05:09:29.643Z,997.44
2019-03-08T05:10:39.408Z,997.5
2019-03-08T05:11:49.413Z,997.62
2019-03-08T05:12:59.392Z,997.54
2019-03-08T05:14:09.108Z,997.49
2019-03-08T05:15:18.836Z,997.6
2019-03-08T05:16:28.826Z,997.67
2019-03-08T05:17:38.814Z,997.65
2019-03-08T05:18:48.598Z,997.58
2019-03-08T05:19:58.069Z,997.66
2019-03-08T05:21:07.799Z,997.74
2019-03-08T05:22:17.527Z,997.69
2019-03-08T05:23:28.478Z,997.83
2019-03-08T05:27:00.044Z,997.89
2019-03-08T05:28:09.770Z,997.95
2019-03-08T05:29:19.751Z,997.98
2019-03-08T05:30:31.696Z,998.06
2019-03-08T05:31:41.674Z,998.08
2019-03-08T05:32:51.399Z,998.24
2019-03-08T05:34:00.888Z,998.23
2019-03-08T05:35:10.944Z,998.2
2019-03-08T05:36:21.207Z,998.23
2019-03-08T05:37:31.418Z,998.39
2019-03-08T05:38:41.602Z,998.28
2019-03-08T05:39:52.580Z,998.48
2019-03-08T05:41:03.253Z,998.76
2019-03-08T05:42:13.351Z,998.53
2019-03-08T05:43:23.755Z,998.47
2019-03-08T05:44:33.580Z,998.95
2019-03-08T05:45:42.955Z,998.63
2019-03-08T05:46:52.703Z,998.58
2019-03-08T05:48:02.436Z,998.55
2019-03-08T05:49:12.187Z,998.61
2019-03-08T05:50:21.661Z,998.58
2019-03-08T05:51:31.389Z,998.69
2019-03-08T05:52:40.913Z,998.64
2019-03-08T05:53:50.680Z,998.65
2019-03-08T05:55:00.651Z,998.69
2019-03-08T05:56:10.662Z,998.94
2019-03-08T05:57:20.157Z,998.87
2019-03-08T05:58:29.667Z,998.9
2019-03-08T05:59:39.666Z,999.02
2019-03-08T06:00:50.755Z,999.04
2019-03-08T06:02:00.243Z,999.09
2019-03-08T06:03:09.962Z,999.13
2019-03-08T06:04:19.703Z,999.22
2019-03-08T06:05:29.448Z,999.26
2019-03-08T06:06:38.933Z,999.29
2019-03-08T06:07:48.682Z,999.28
2019-03-08T06:08:58.468Z,999.26
2019-03-08T06:10:08.215Z,999.4
2019-03-08T06:11:17.930Z,999.49
2019-03-08T06:12:27.914Z,999.51
2019-03-08T06:13:37.633Z,999.57
2019-03-08T06:14:47.611Z,999.74
2019-03-08T06:15:57.084Z,999.71
2019-03-08T06:17:06.831Z,999.84
2019-03-08T06:18:16.585Z,999.85
2019-03-08T06:19:26.331Z,999.78
2019-03-08T06:20:35.837Z,999.95
2019-03-08T06:21:45.335Z,999.96
2019-03-08T06:22:55.065Z,999.92
2019-03-08T06:24:05.319Z,1000.09
2019-03-08T06:25:14.823Z,1000.04
2019-03-08T06:26:24.835Z,1000.04
2019-03-08T06:27:34.047Z,1000.26
2019-03-08T06:28:43.809Z,1000.2
2019-03-08T06:29:53.288Z,1000.13
2019-03-08T06:31:02.975Z,1000.21
2019-03-08T06:32:12.958Z,1000.4
2019-03-08T06:33:22.951Z,1000.4
2019-03-08T06:34:32.990Z,1000.47
2019-03-08T06:35:42.960Z,1000.61
2019-03-08T06:36:52.706Z,1000.49
2019-03-08T06:38:02.426Z,1000.51
2019-03-08T06:39:11.931Z,1000.62
2019-03-08T06:40:21.657Z,1000.63
2019-03-08T06:41:31.242Z,1000.73
2019-03-08T06:42:41.002Z,1000.84
2019-03-08T06:43:50.505Z,1000.88
2019-03-08T06:44:59.983Z,1000.84
2019-03-08T06:46:09.953Z,1000.9
2019-03-08T06:47:19.180Z,1000.96
2019-03-08T06:48:28.907Z,1001.05
2019-03-08T06:49:38.653Z,1001.18
2019-03-08T06:50:48.405Z,1001.19
2019-03-08T06:51:58.402Z,1001.36
2019-03-08T06:53:08.900Z,1001.38
2019-03-08T06:54:19.477Z,1001.4
2019-03-08T06:55:29.612Z,1001.44
2019-03-08T06:56:39.470Z,1001.51
2019-03-08T06:57:49.699Z,1001.58
2019-03-08T06:58:59.746Z,1001.57
2019-03-08T07:00:10.135Z,1001.63
2019-03-08T07:01:20.225Z,1001.61
2019-03-08T07:02:30.335Z,1001.62
2019-03-08T07:03:40.266Z,1001.63
2019-03-08T07:04:50.093Z,1001.71
2019-03-08T07:05:59.579Z,1001.82
2019-03-08T07:07:09.544Z,1001.72
2019-03-08T07:08:19.031Z,1001.91
2019-03-08T07:09:28.776Z,1001.89
2019-03-08T07:10:38.761Z,1002.04
2019-03-08T07:11:48.741Z,1002.03
2019-03-08T07:13:03.045Z,1002.11
2019-03-08T07:14:13.236Z,1002.18
2019-03-08T07:15:22.728Z,1002.17
2019-03-08T07:16:32.200Z,1002.23
2019-03-08T07:17:41.439Z,1002.21
2019-03-08T07:18:51.830Z,1002.35
2019-03-08T07:20:01.900Z,1002.33
2019-03-08T07:21:11.636Z,1002.36
2019-03-08T07:22:21.122Z,1002.4
2019-03-08T07:23:30.887Z,1002.44
2019-03-08T07:24:40.616Z,1002.51
2019-03-08T07:25:52.478Z,1002.64
2019-03-08T07:27:04.167Z,1002.7
2019-03-08T07:28:14.155Z,1002.71
2019-03-08T07:29:23.877Z,1002.84
2019-03-08T07:30:33.380Z,1002.81
2019-03-08T07:31:43.104Z,1002.92
2019-03-08T07:32:52.850Z,1003.04
2019-03-08T07:34:02.072Z,1003.34
2019-03-08T07:35:13.932Z,1003.21
2019-03-08T07:36:24.817Z,1003.3
2019-03-08T07:37:34.385Z,1003.21
2019-03-08T07:38:45.528Z,1003.16
2019-03-08T07:39:55.262Z,1003.19
2019-03-08T07:41:05.008Z,1003.15
2019-03-08T07:42:14.747Z,1003.29
2019-03-08T07:43:24.496Z,1003.25
2019-03-08T07:44:33.480Z,1003.31
2019-03-08T07:45:44.301Z,1003.47
2019-03-08T07:46:54.425Z,1003.49
2019-03-08T07:48:04.165Z,1003.44
2019-03-08T07:49:14.116Z,1003.43
2019-03-08T07:50:25.639Z,1003.49
2019-03-08T07:51:36.049Z,1003.64
2019-03-08T07:52:46.700Z,1003.69
2019-03-08T07:53:56.689Z,1003.71
2019-03-08T07:55:06.847Z,1003.74
2019-03-08T07:56:16.767Z,1003.8
2019-03-08T07:57:26.958Z,1003.83
2019-03-08T07:58:37.060Z,1003.88
2019-03-08T07:59:53.301Z,1003.88
2019-03-08T08:01:03.180Z,1003.99
2019-03-08T08:02:12.926Z,1004.03
2019-03-08T08:03:22.907Z,1004.03
2019-03-08T08:04:32.411Z,1004.08
2019-03-08T08:05:41.914Z,1004.13
2019-03-08T08:07:00.662Z,1004.24
2019-03-08T08:08:10.714Z,1004.26
2019-03-08T08:09:20.446Z,1004.24
2019-03-08T08:10:30.216Z,1004.33
2019-03-08T08:11:39.992Z,1004.34
2019-03-08T08:12:49.729Z,1004.28
2019-03-08T08:13:59.509Z,1004.46
2019-03-08T08:15:08.990Z,1004.44
2019-03-08T08:16:18.962Z,1004.47
2019-03-08T08:17:28.969Z,1004.49
2019-03-08T08:18:38.976Z,1004.44
2019-03-08T08:19:48.752Z,1004.57
2019-03-08T08:20:58.486Z,1004.64
2019-03-08T08:22:08.686Z,1004.72
2019-03-08T08:23:19.981Z,1004.75
2019-03-08T08:24:40.604Z,1004.77
2019-03-08T08:25:50.569Z,1004.8
2019-03-08T08:27:00.679Z,1004.8
2019-03-08T08:28:12.348Z,1004.83
2019-03-08T08:29:22.131Z,1004.95
2019-03-08T08:30:40.228Z,1004.96
2019-03-08T08:31:49.698Z,1004.99
2019-03-08T08:32:59.696Z,1005.01
2019-03-08T08:34:09.419Z,1005.01
2019-03-08T08:35:19.418Z,1005.15
2019-03-08T08:36:29.431Z,1005.17
2019-03-08T08:37:39.170Z,1005.17
2019-03-08T08:38:48.914Z,1005.22
2019-03-08T08:39:58.886Z,1005.3
2019-03-08T08:41:08.620Z,1005.27
2019-03-08T08:42:18.334Z,1005.29
2019-03-08T08:43:28.073Z,1005.34
2019-03-08T08:44:37.327Z,1005.33
2019-03-08T08:45:47.321Z,1005.37
2019-03-08T08:46:57.056Z,1005.39
2019-03-08T08:48:06.818Z,1005.42
2019-03-08T08:49:18.002Z,1005.49
2019-03-08T08:50:28.018Z,1005.53
2019-03-08T08:51:38.372Z,1005.64
2019-03-08T08:52:47.594Z,1005.61
2019-03-08T08:53:57.342Z,1005.71
2019-03-08T08:55:06.826Z,1005.91
2019-03-08T08:56:16.561Z,1005.75
2019-03-08T08:57:26.555Z,1005.69
2019-03-08T08:58:36.281Z,1005.77
2019-03-08T08:59:46.268Z,1005.84
2019-03-08T09:00:57.343Z,1005.91
2019-03-08T09:02:07.334Z,1005.89
2019-03-08T09:03:17.317Z,1005.88
2019-03-08T09:04:26.815Z,1006.02
2019-03-08T09:05:36.800Z,1006.08
2019-03-08T09:06:46.524Z,1005.96
2019-03-08T09:07:56.513Z,1005.91
2019-03-08T09:09:06.006Z,1005.97
2019-03-08T09:10:15.741Z,1005.99
2019-03-08T09:11:25.734Z,1006.08
2019-03-08T09:12:46.243Z,1006.16
2019-03-08T09:13:56.312Z,1006.11
2019-03-08T09:15:06.552Z,1006.21
2019-03-08T09:16:16.058Z,1006.41
2019-03-08T09:17:25.538Z,1006.33
2019-03-08T09:18:35.265Z,1006.48
2019-03-08T09:19:44.734Z,1006.55
2019-03-08T09:20:54.228Z,1006.61
2019-03-08T09:22:03.961Z,1006.59
2019-03-08T09:23:13.685Z,1006.7
2019-03-08T09:24:23.419Z,1006.58
2019-03-08T09:25:32.914Z,1006.67
2019-03-08T09:26:42.895Z,1006.69
2019-03-08T09:27:52.684Z,1006.67
2019-03-08T09:29:02.164Z,1006.74
2019-03-08T09:30:11.898Z,1006.71
2019-03-08T09:31:21.427Z,1006.71
2019-03-08T09:32:32.790Z,1006.77
2019-03-08T09:33:42.269Z,1006.79
2019-03-08T09:34:52.243Z,1006.83
2019-03-08T09:36:01.746Z,1006.87
2019-03-08T09:37:11.728Z,1006.79
2019-03-08T09:38:21.455Z,1006.83
2019-03-08T09:39:30.950Z,1006.86
2019-03-08T09:40:40.929Z,1006.87
2019-03-08T09:41:50.889Z,1006.92
2019-03-08T09:43:00.646Z,1006.94
2019-03-08T09:44:10.409Z,1006.94
2019-03-08T09:45:20.129Z,1006.95
2019-03-08T09:46:29.872Z,1006.89
2019-03-08T09:47:39.614Z,1006.95
2019-03-08T09:48:49.103Z,1006.95
2019-03-08T09:49:59.445Z,1006.97
2019-03-08T09:51:09.235Z,1006.9
2019-03-08T09:52:18.963Z,1007.06
2019-03-08T09:53:28.960Z,1007.09
2019-03-08T09:54:38.474Z,1007.21
2019-03-08T09:55:48.182Z,1007.12
2019-03-08T09:56:58.175Z,1007.19
2019-03-08T09:58:07.925Z,1007.22
2019-03-08T09:59:17.902Z,1007.22
2019-03-08T10:00:28.104Z,1007.34
2019-03-08T10:01:37.583Z,1007.22
2019-03-08T10:02:47.307Z,1007.35
2019-03-08T10:03:57.280Z,1007.34
2019-03-08T10:05:07.276Z,1007.34
2019-03-08T10:06:17.263Z,1007.43
2019-03-08T10:07:27.234Z,1007.34
2019-03-08T10:08:37.288Z,1007.42
2019-03-08T10:09:47.423Z,1007.5
2019-03-08T10:10:57.669Z,1007.6
2019-03-08T10:12:08.233Z,1007.41
2019-03-08T10:13:18.434Z,1007.57
2019-03-08T10:14:28.881Z,1007.51
2019-03-08T10:15:39.015Z,1007.55
2019-03-08T10:16:48.844Z,1007.53
2019-03-08T10:17:58.880Z,1007.65
2019-03-08T10:19:08.122Z,1007.65
2019-03-08T10:20:17.337Z,1007.64
2019-03-08T10:21:26.818Z,1007.64
2019-03-08T10:22:36.805Z,1007.73
2019-03-08T10:23:46.278Z,1007.67
2019-03-08T10:24:56.265Z,1007.64
2019-03-08T10:26:05.743Z,1007.69
2019-03-08T10:27:15.219Z,1007.79
2019-03-08T10:28:24.977Z,1007.78
2019-03-08T10:29:34.698Z,1007.87
2019-03-08T10:30:44.735Z,1007.74
2019-03-08T10:31:54.731Z,1007.8
2019-03-08T10:33:04.705Z,1007.87
2019-03-08T10:34:15.490Z,1007.92
2019-03-08T10:35:25.093Z,1007.83
2019-03-08T10:36:34.589Z,1007.84
2019-03-08T10:37:44.582Z,1007.85
2019-03-08T10:38:54.308Z,1007.82
2019-03-08T10:40:05.592Z,1007.84
2019-03-08T10:41:15.727Z,1007.95
2019-03-08T10:42:25.712Z,1007.95
2019-03-08T10:43:35.689Z,1007.98
2019-03-08T10:44:45.419Z,1008.18
2019-03-08T10:45:55.133Z,1008.17
2019-03-08T10:47:04.617Z,1008.09
2019-03-08T10:48:14.599Z,1008.13
2019-03-08T10:49:24.613Z,1008.32
2019-03-08T10:50:34.094Z,1008.22
2019-03-08T10:51:44.078Z,1008.25
2019-03-08T10:52:53.823Z,1008.33
2019-03-08T10:54:03.313Z,1008.28
2019-03-08T10:55:13.308Z,1008.39
2019-03-08T10:56:23.289Z,1008.44
2019-03-08T10:57:33.267Z,1008.5
2019-03-08T10:58:42.743Z,1008.41
2019-03-08T10:59:52.724Z,1008.34
2019-03-08T11:01:02.482Z,1008.45
2019-03-08T11:02:12.458Z,1008.49
2019-03-08T11:03:22.177Z,1008.53
2019-03-08T11:04:31.900Z,1008.63
2019-03-08T11:05:41.619Z,1008.53
2019-03-08T11:06:51.595Z,1008.59
2019-03-08T11:08:01.269Z,1008.65
2019-03-08T11:09:12.441Z,1008.68
2019-03-08T11:10:22.414Z,1008.75
2019-03-08T11:11:32.603Z,1008.75
2019-03-08T11:12:43.238Z,1008.77
2019-03-08T11:13:53.638Z,1008.9
2019-03-08T11:15:03.585Z,1008.86
2019-03-08T11:16:13.895Z,1008.88
2019-03-08T11:17:25.534Z,1008.92
2019-03-08T11:18:35.271Z,1008.89
2019-03-08T11:19:45.002Z,1008.97
2019-03-08T11:20:54.499Z,1009.05
2019-03-08T11:22:04.222Z,1009.01
2019-03-08T11:23:14.183Z,1009.08
2019-03-08T11:24:23.932Z,1009.18
2019-03-08T11:25:35.091Z,1009.02
2019-03-08T11:26:45.053Z,1009.08
2019-03-08T11:27:54.779Z,1009.08
2019-03-08T11:29:04.260Z,1009.1
2019-03-08T11:30:14.243Z,1009.17
2019-03-08T11:31:24.487Z,1009.18
2019-03-08T11:32:35.465Z,1009.18
2019-03-08T11:33:46.866Z,1009.23
2019-03-08T11:34:56.643Z,1009.19
2019-03-08T11:36:06.116Z,1009.23
2019-03-08T11:37:16.085Z,1009.28
2019-03-08T11:38:26.060Z,1009.32
2019-03-08T11:39:35.802Z,1009.37
2019-03-08T11:40:45.550Z,1009.36
2019-03-08T11:41:56.029Z,1009.35
2019-03-08T11:43:05.812Z,1009.39
2019-03-08T11:44:15.808Z,1009.3
2019-03-08T11:45:26.264Z,1009.48
2019-03-08T11:46:35.836Z,1009.4
2019-03-08T11:47:44.802Z,1009.52
2019-03-08T11:48:54.529Z,1009.5
2019-03-08T11:50:04.291Z,1009.58
2019-03-08T11:51:13.763Z,1009.58
2019-03-08T11:52:23.489Z,1009.67
2019-03-08T11:53:32.987Z,1009.72
2019-03-08T11:54:42.748Z,1009.68
2019-03-08T11:55:52.234Z,1009.73
2019-03-08T11:57:01.987Z,1009.77
2019-03-08T11:58:11.888Z,1009.7
2019-03-08T11:59:21.354Z,1009.82
2019-03-08T12:00:31.330Z,1009.76
2019-03-08T12:01:41.327Z,1009.75
2019-03-08T12:02:53.247Z,1009.78
2019-03-08T12:04:03.680Z,1009.87
2019-03-08T12:05:14.064Z,1009.9
2019-03-08T12:06:24.141Z,1009.91
2019-03-08T12:07:35.397Z,1009.9
2019-03-08T12:08:45.323Z,1009.91
2019-03-08T12:09:54.847Z,1009.91
2019-03-08T12:11:04.826Z,1009.91
2019-03-08T12:12:14.291Z,1009.97
2019-03-08T12:13:24.024Z,1009.95
2019-03-08T12:14:35.218Z,1010
2019-03-08T12:15:44.710Z,1010
2019-03-08T12:16:54.702Z,1009.99
2019-03-08T12:18:04.453Z,1010.01
2019-03-08T12:19:13.932Z,1010.03
2019-03-08T12:20:23.428Z,1010.1
2019-03-08T12:21:33.406Z,1010.13
2019-03-08T12:22:43.376Z,1010.11
2019-03-08T12:23:52.869Z,1010.11
